sensor_id;sensor_type;location;lat;lon;timestamp;pressure;altitude;pressure_sealevel;temperature;humidity
61318;BME280;47201;40.428;-8.436;2023-01-25T00:00:15;101724.19;;;5.63;87.86
61318;BME280;47201;40.428;-8.436;2023-01-25T00:02:18;101728.16;;;5.77;86.25
61318;BME280;47201;40.428;-8.436;2023-01-25T00:04:19;101719.56;;;6.04;83.79
61318;BME280;47201;40.428;-8.436;2023-01-25T00:06:20;101725.06;;;6.13;83.58
61318;BME280;47201;40.428;-8.436;2023-01-25T00:08:20;101731.16;;;6.14;85.06
61318;BME280;47201;40.428;-8.436;2023-01-25T00:10:21;101725.72;;;6.08;85.17
61318;BME280;47201;40.428;-8.436;2023-01-25T00:12:22;101731.00;;;6.09;83.73
61318;BME280;47201;40.428;-8.436;2023-01-25T00:14:22;101727.59;;;6.12;83.53
61318;BME280;47201;40.428;-8.436;2023-01-25T00:16:23;101735.28;;;6.09;83.88
61318;BME280;47201;40.428;-8.436;2023-01-25T00:18:23;101735.97;;;6.03;84.37
61318;BME280;47201;40.428;-8.436;2023-01-25T00:20:24;101730.38;;;5.92;84.97
61318;BME280;47201;40.428;-8.436;2023-01-25T00:22:24;101730.84;;;5.80;86.50
61318;BME280;47201;40.428;-8.436;2023-01-25T00:24:25;101729.72;;;5.72;86.53
61318;BME280;47201;40.428;-8.436;2023-01-25T00:26:28;101727.00;;;5.69;85.46
61318;BME280;47201;40.428;-8.436;2023-01-25T00:28:29;101727.88;;;5.69;85.21
61318;BME280;47201;40.428;-8.436;2023-01-25T00:30:29;101727.19;;;5.75;83.60
61318;BME280;47201;40.428;-8.436;2023-01-25T00:35:09;101723.56;;;5.96;82.79
61318;BME280;47201;40.428;-8.436;2023-01-25T00:37:24;101725.69;;;6.06;81.06
61318;BME280;47201;40.428;-8.436;2023-01-25T00:39:27;101728.25;;;6.05;81.89
61318;BME280;47201;40.428;-8.436;2023-01-25T00:41:28;101727.09;;;5.98;83.44
61318;BME280;47201;40.428;-8.436;2023-01-25T00:43:28;101725.25;;;5.94;82.42
61318;BME280;47201;40.428;-8.436;2023-01-25T00:45:29;101733.53;;;5.83;85.08
61318;BME280;47201;40.428;-8.436;2023-01-25T00:47:30;101728.63;;;5.67;85.73
61318;BME280;47201;40.428;-8.436;2023-01-25T00:49:30;101724.81;;;5.55;86.50
61318;BME280;47201;40.428;-8.436;2023-01-25T00:51:31;101728.81;;;5.47;86.98
61318;BME280;47201;40.428;-8.436;2023-01-25T00:53:32;101744.00;;;5.36;87.63
61318;BME280;47201;40.428;-8.436;2023-01-25T00:55:33;101735.69;;;5.22;90.16
61318;BME280;47201;40.428;-8.436;2023-01-25T00:57:34;101731.91;;;5.13;90.04
61318;BME280;47201;40.428;-8.436;2023-01-25T00:59:34;101723.25;;;5.12;89.88
61318;BME280;47201;40.428;-8.436;2023-01-25T01:01:35;101724.16;;;5.14;89.07
61318;BME280;47201;40.428;-8.436;2023-01-25T01:03:35;101726.16;;;5.21;89.36
61318;BME280;47201;40.428;-8.436;2023-01-25T01:05:36;101733.88;;;5.20;89.93
61318;BME280;47201;40.428;-8.436;2023-01-25T01:07:37;101720.84;;;5.17;90.46
61318;BME280;47201;40.428;-8.436;2023-01-25T01:09:37;101727.34;;;5.07;90.47
61318;BME280;47201;40.428;-8.436;2023-01-25T01:11:38;101724.44;;;4.98;91.44
61318;BME280;47201;40.428;-8.436;2023-01-25T01:13:39;101723.50;;;4.96;91.95
61318;BME280;47201;40.428;-8.436;2023-01-25T01:15:39;101728.22;;;4.83;93.13
61318;BME280;47201;40.428;-8.436;2023-01-25T01:17:40;101725.94;;;4.70;93.96
61318;BME280;47201;40.428;-8.436;2023-01-25T01:19:40;101720.44;;;4.60;94.61
61318;BME280;47201;40.428;-8.436;2023-01-25T01:21:41;101735.78;;;4.56;95.42
61318;BME280;47201;40.428;-8.436;2023-01-25T01:23:41;101735.56;;;4.50;96.91
61318;BME280;47201;40.428;-8.436;2023-01-25T01:25:42;101729.00;;;4.37;97.99
61318;BME280;47201;40.428;-8.436;2023-01-25T01:27:43;101732.19;;;4.31;100.00
61318;BME280;47201;40.428;-8.436;2023-01-25T01:29:43;101737.91;;;4.22;100.00
61318;BME280;47201;40.428;-8.436;2023-01-25T01:31:44;101733.50;;;4.20;100.00
61318;BME280;47201;40.428;-8.436;2023-01-25T01:33:52;101733.72;;;4.26;100.00
61318;BME280;47201;40.428;-8.436;2023-01-25T01:35:53;101731.63;;;4.17;100.00
61318;BME280;47201;40.428;-8.436;2023-01-25T01:37:53;101742.88;;;4.18;100.00
61318;BME280;47201;40.428;-8.436;2023-01-25T01:39:54;101738.91;;;4.05;100.00
61318;BME280;47201;40.428;-8.436;2023-01-25T01:41:54;101736.75;;;3.94;100.00
61318;BME280;47201;40.428;-8.436;2023-01-25T01:43:55;101738.50;;;3.95;100.00
61318;BME280;47201;40.428;-8.436;2023-01-25T01:45:56;101743.81;;;3.99;100.00
61318;BME280;47201;40.428;-8.436;2023-01-25T01:48:04;101743.81;;;3.99;100.00
61318;BME280;47201;40.428;-8.436;2023-01-25T01:50:07;101747.22;;;3.97;100.00
61318;BME280;47201;40.428;-8.436;2023-01-25T01:52:12;101748.03;;;3.96;100.00
61318;BME280;47201;40.428;-8.436;2023-01-25T01:54:20;101745.44;;;3.96;100.00
61318;BME280;47201;40.428;-8.436;2023-01-25T01:58:44;101750.13;;;3.84;100.00
61318;BME280;47201;40.428;-8.436;2023-01-25T02:00:46;101753.38;;;3.80;100.00
61318;BME280;47201;40.428;-8.436;2023-01-25T02:02:47;101751.34;;;3.73;100.00
61318;BME280;47201;40.428;-8.436;2023-01-25T02:04:49;101742.66;;;3.71;100.00
61318;BME280;47201;40.428;-8.436;2023-01-25T02:06:52;101758.44;;;3.77;100.00
61318;BME280;47201;40.428;-8.436;2023-01-25T02:08:54;101751.63;;;3.79;100.00
61318;BME280;47201;40.428;-8.436;2023-01-25T02:10:54;101754.81;;;3.73;100.00
61318;BME280;47201;40.428;-8.436;2023-01-25T02:12:55;101757.22;;;3.69;100.00
61318;BME280;47201;40.428;-8.436;2023-01-25T02:14:57;101764.75;;;3.64;100.00
61318;BME280;47201;40.428;-8.436;2023-01-25T02:16:57;101764.66;;;3.61;100.00
61318;BME280;47201;40.428;-8.436;2023-01-25T02:18:58;101766.13;;;3.56;100.00
61318;BME280;47201;40.428;-8.436;2023-01-25T02:21:01;101770.22;;;3.51;100.00
61318;BME280;47201;40.428;-8.436;2023-01-25T02:25:08;101774.91;;;3.40;100.00
61318;BME280;47201;40.428;-8.436;2023-01-25T02:27:09;101768.50;;;3.31;100.00
61318;BME280;47201;40.428;-8.436;2023-01-25T02:29:10;101772.31;;;3.40;100.00
61318;BME280;47201;40.428;-8.436;2023-01-25T02:31:10;101775.50;;;3.34;100.00
61318;BME280;47201;40.428;-8.436;2023-01-25T02:33:11;101776.25;;;3.31;100.00
61318;BME280;47201;40.428;-8.436;2023-01-25T02:35:19;101778.56;;;3.25;100.00
61318;BME280;47201;40.428;-8.436;2023-01-25T02:37:20;101782.56;;;3.18;100.00
61318;BME280;47201;40.428;-8.436;2023-01-25T02:39:21;101779.91;;;3.17;100.00
61318;BME280;47201;40.428;-8.436;2023-01-25T02:41:32;101778.28;;;3.19;100.00
61318;BME280;47201;40.428;-8.436;2023-01-25T02:43:33;101784.06;;;3.13;100.00
61318;BME280;47201;40.428;-8.436;2023-01-25T02:45:36;101776.91;;;3.08;100.00
61318;BME280;47201;40.428;-8.436;2023-01-25T02:47:36;101776.63;;;3.01;100.00
61318;BME280;47201;40.428;-8.436;2023-01-25T02:49:37;101778.00;;;2.95;100.00
61318;BME280;47201;40.428;-8.436;2023-01-25T02:51:41;101778.84;;;2.94;100.00
61318;BME280;47201;40.428;-8.436;2023-01-25T02:53:42;101776.88;;;2.88;100.00
61318;BME280;47201;40.428;-8.436;2023-01-25T02:55:43;101769.69;;;2.82;100.00
61318;BME280;47201;40.428;-8.436;2023-01-25T02:57:43;101776.56;;;2.82;100.00
61318;BME280;47201;40.428;-8.436;2023-01-25T02:59:44;101781.34;;;2.74;100.00
61318;BME280;47201;40.428;-8.436;2023-01-25T03:01:47;101779.69;;;2.75;100.00
61318;BME280;47201;40.428;-8.436;2023-01-25T03:03:48;101774.63;;;2.78;100.00
61318;BME280;47201;40.428;-8.436;2023-01-25T03:05:50;101781.59;;;2.79;100.00
61318;BME280;47201;40.428;-8.436;2023-01-25T03:07:51;101778.19;;;2.80;100.00
61318;BME280;47201;40.428;-8.436;2023-01-25T03:09:51;101778.69;;;2.91;100.00
61318;BME280;47201;40.428;-8.436;2023-01-25T03:11:52;101782.91;;;2.89;100.00
61318;BME280;47201;40.428;-8.436;2023-01-25T03:13:55;101789.09;;;2.92;100.00
61318;BME280;47201;40.428;-8.436;2023-01-25T03:16:00;101776.38;;;3.15;100.00
61318;BME280;47201;40.428;-8.436;2023-01-25T03:18:01;101782.84;;;3.25;100.00
61318;BME280;47201;40.428;-8.436;2023-01-25T03:20:01;101780.72;;;3.16;100.00
61318;BME280;47201;40.428;-8.436;2023-01-25T03:22:03;101791.53;;;3.07;100.00
61318;BME280;47201;40.428;-8.436;2023-01-25T03:24:07;101792.06;;;3.00;100.00
61318;BME280;47201;40.428;-8.436;2023-01-25T03:26:17;101795.22;;;2.94;100.00
61318;BME280;47201;40.428;-8.436;2023-01-25T03:28:44;101783.81;;;2.89;100.00
61318;BME280;47201;40.428;-8.436;2023-01-25T03:30:51;101792.78;;;2.97;100.00
61318;BME280;47201;40.428;-8.436;2023-01-25T03:32:52;101791.09;;;2.98;100.00
61318;BME280;47201;40.428;-8.436;2023-01-25T03:34:53;101779.88;;;2.97;100.00
61318;BME280;47201;40.428;-8.436;2023-01-25T03:36:54;101792.78;;;2.97;100.00
61318;BME280;47201;40.428;-8.436;2023-01-25T03:38:54;101781.28;;;2.91;100.00
61318;BME280;47201;40.428;-8.436;2023-01-25T03:40:55;101784.53;;;2.87;100.00
61318;BME280;47201;40.428;-8.436;2023-01-25T03:42:57;101786.38;;;2.89;100.00
61318;BME280;47201;40.428;-8.436;2023-01-25T03:44:58;101782.03;;;2.88;100.00
61318;BME280;47201;40.428;-8.436;2023-01-25T03:46:59;101785.91;;;2.98;100.00
61318;BME280;47201;40.428;-8.436;2023-01-25T03:49:00;101783.19;;;2.95;100.00
61318;BME280;47201;40.428;-8.436;2023-01-25T03:51:00;101788.97;;;2.89;100.00
61318;BME280;47201;40.428;-8.436;2023-01-25T03:55:44;101782.13;;;3.09;100.00
61318;BME280;47201;40.428;-8.436;2023-01-25T03:57:46;101800.03;;;3.05;100.00
61318;BME280;47201;40.428;-8.436;2023-01-25T03:59:48;101796.91;;;3.12;100.00
61318;BME280;47201;40.428;-8.436;2023-01-25T04:01:49;101787.91;;;3.04;100.00
61318;BME280;47201;40.428;-8.436;2023-01-25T04:03:49;101790.41;;;3.02;100.00
61318;BME280;47201;40.428;-8.436;2023-01-25T04:05:51;101793.81;;;3.01;100.00
61318;BME280;47201;40.428;-8.436;2023-01-25T04:07:52;101787.00;;;3.03;100.00
61318;BME280;47201;40.428;-8.436;2023-01-25T04:10:01;101787.09;;;3.05;100.00
61318;BME280;47201;40.428;-8.436;2023-01-25T04:12:03;101775.38;;;2.93;100.00
61318;BME280;47201;40.428;-8.436;2023-01-25T04:14:06;101779.22;;;2.83;100.00
61318;BME280;47201;40.428;-8.436;2023-01-25T04:16:17;101791.84;;;2.77;100.00
61318;BME280;47201;40.428;-8.436;2023-01-25T04:18:38;101789.56;;;2.83;100.00
61318;BME280;47201;40.428;-8.436;2023-01-25T04:20:40;101788.34;;;2.77;100.00
61318;BME280;47201;40.428;-8.436;2023-01-25T04:22:41;101786.22;;;2.68;100.00
61318;BME280;47201;40.428;-8.436;2023-01-25T04:24:42;101783.88;;;2.54;100.00
61318;BME280;47201;40.428;-8.436;2023-01-25T04:26:43;101784.97;;;2.42;100.00
61318;BME280;47201;40.428;-8.436;2023-01-25T04:28:43;101789.97;;;2.38;100.00
61318;BME280;47201;40.428;-8.436;2023-01-25T04:30:44;101776.25;;;2.40;100.00
61318;BME280;47201;40.428;-8.436;2023-01-25T04:32:48;101778.84;;;2.40;100.00
61318;BME280;47201;40.428;-8.436;2023-01-25T04:34:54;101778.03;;;2.41;100.00
61318;BME280;47201;40.428;-8.436;2023-01-25T04:36:57;101779.00;;;2.43;100.00
61318;BME280;47201;40.428;-8.436;2023-01-25T04:39:02;101779.06;;;2.44;100.00
61318;BME280;47201;40.428;-8.436;2023-01-25T04:41:03;101776.13;;;2.36;100.00
61318;BME280;47201;40.428;-8.436;2023-01-25T04:43:04;101783.75;;;2.35;100.00
61318;BME280;47201;40.428;-8.436;2023-01-25T04:45:06;101789.81;;;2.17;100.00
61318;BME280;47201;40.428;-8.436;2023-01-25T04:47:07;101790.94;;;2.06;100.00
61318;BME280;47201;40.428;-8.436;2023-01-25T04:49:07;101787.00;;;2.13;100.00
61318;BME280;47201;40.428;-8.436;2023-01-25T04:51:08;101787.53;;;2.24;100.00
61318;BME280;47201;40.428;-8.436;2023-01-25T04:53:10;101787.31;;;2.37;100.00
61318;BME280;47201;40.428;-8.436;2023-01-25T04:55:11;101789.44;;;2.46;100.00
61318;BME280;47201;40.428;-8.436;2023-01-25T04:57:16;101783.47;;;2.47;100.00
61318;BME280;47201;40.428;-8.436;2023-01-25T04:59:22;101788.81;;;2.50;100.00
61318;BME280;47201;40.428;-8.436;2023-01-25T05:01:22;101792.25;;;2.50;100.00
61318;BME280;47201;40.428;-8.436;2023-01-25T05:03:24;101785.50;;;2.52;100.00
61318;BME280;47201;40.428;-8.436;2023-01-25T05:05:26;101785.34;;;2.49;100.00
61318;BME280;47201;40.428;-8.436;2023-01-25T05:07:28;101792.19;;;2.49;100.00
61318;BME280;47201;40.428;-8.436;2023-01-25T05:09:28;101803.25;;;2.46;100.00
61318;BME280;47201;40.428;-8.436;2023-01-25T05:11:29;101791.97;;;2.44;100.00
61318;BME280;47201;40.428;-8.436;2023-01-25T05:13:40;101797.38;;;2.49;100.00
61318;BME280;47201;40.428;-8.436;2023-01-25T05:15:50;101797.94;;;2.61;100.00
61318;BME280;47201;40.428;-8.436;2023-01-25T05:17:50;101798.84;;;2.80;100.00
61318;BME280;47201;40.428;-8.436;2023-01-25T05:19:51;101797.31;;;2.83;100.00
61318;BME280;47201;40.428;-8.436;2023-01-25T05:21:54;101793.75;;;2.81;100.00
61318;BME280;47201;40.428;-8.436;2023-01-25T05:23:59;101787.84;;;2.84;100.00
61318;BME280;47201;40.428;-8.436;2023-01-25T05:26:00;101782.66;;;3.20;100.00
61318;BME280;47201;40.428;-8.436;2023-01-25T05:28:40;101791.66;;;3.48;100.00
61318;BME280;47201;40.428;-8.436;2023-01-25T05:31:03;101795.41;;;3.74;99.12
61318;BME280;47201;40.428;-8.436;2023-01-25T05:33:07;101792.06;;;3.77;100.00
61318;BME280;47201;40.428;-8.436;2023-01-25T05:35:07;101789.41;;;3.75;98.49
61318;BME280;47201;40.428;-8.436;2023-01-25T05:37:09;101791.16;;;3.76;96.02
61318;BME280;47201;40.428;-8.436;2023-01-25T05:39:14;101799.66;;;3.74;96.22
61318;BME280;47201;40.428;-8.436;2023-01-25T05:41:14;101793.41;;;3.69;98.23
61318;BME280;47201;40.428;-8.436;2023-01-25T05:43:16;101793.69;;;3.55;100.00
61318;BME280;47201;40.428;-8.436;2023-01-25T05:45:17;101803.28;;;3.38;100.00
61318;BME280;47201;40.428;-8.436;2023-01-25T05:47:19;101803.16;;;3.17;100.00
61318;BME280;47201;40.428;-8.436;2023-01-25T05:49:20;101798.84;;;2.98;100.00
61318;BME280;47201;40.428;-8.436;2023-01-25T05:51:21;101797.25;;;2.82;100.00
61318;BME280;47201;40.428;-8.436;2023-01-25T05:53:25;101804.47;;;2.71;100.00
61318;BME280;47201;40.428;-8.436;2023-01-25T05:55:26;101798.78;;;2.60;100.00
61318;BME280;47201;40.428;-8.436;2023-01-25T05:57:27;101806.38;;;2.57;100.00
61318;BME280;47201;40.428;-8.436;2023-01-25T05:59:28;101807.53;;;2.46;100.00
61318;BME280;47201;40.428;-8.436;2023-01-25T06:01:30;101810.31;;;2.32;100.00
61318;BME280;47201;40.428;-8.436;2023-01-25T06:03:32;101804.22;;;2.30;100.00
61318;BME280;47201;40.428;-8.436;2023-01-25T06:05:33;101810.06;;;2.28;100.00
61318;BME280;47201;40.428;-8.436;2023-01-25T06:07:34;101810.00;;;2.26;100.00
61318;BME280;47201;40.428;-8.436;2023-01-25T06:09:38;101817.50;;;2.21;100.00
61318;BME280;47201;40.428;-8.436;2023-01-25T06:11:38;101812.34;;;2.21;100.00
61318;BME280;47201;40.428;-8.436;2023-01-25T06:13:39;101819.00;;;2.16;100.00
61318;BME280;47201;40.428;-8.436;2023-01-25T06:15:39;101817.06;;;2.12;100.00
61318;BME280;47201;40.428;-8.436;2023-01-25T06:18:09;101811.75;;;2.09;100.00
61318;BME280;47201;40.428;-8.436;2023-01-25T06:20:19;101816.25;;;2.13;100.00
61318;BME280;47201;40.428;-8.436;2023-01-25T06:22:33;101824.72;;;2.11;100.00
61318;BME280;47201;40.428;-8.436;2023-01-25T06:24:34;101830.28;;;2.02;100.00
61318;BME280;47201;40.428;-8.436;2023-01-25T06:26:34;101832.63;;;1.97;100.00
61318;BME280;47201;40.428;-8.436;2023-01-25T06:28:35;101826.19;;;1.89;100.00
61318;BME280;47201;40.428;-8.436;2023-01-25T06:30:36;101822.31;;;1.81;100.00
61318;BME280;47201;40.428;-8.436;2023-01-25T06:32:37;101823.97;;;1.79;100.00
61318;BME280;47201;40.428;-8.436;2023-01-25T06:34:37;101821.81;;;1.71;100.00
61318;BME280;47201;40.428;-8.436;2023-01-25T06:36:38;101824.19;;;1.67;100.00
61318;BME280;47201;40.428;-8.436;2023-01-25T06:38:39;101829.91;;;1.78;100.00
61318;BME280;47201;40.428;-8.436;2023-01-25T06:40:40;101827.66;;;1.84;100.00
61318;BME280;47201;40.428;-8.436;2023-01-25T06:42:40;101831.03;;;1.83;100.00
61318;BME280;47201;40.428;-8.436;2023-01-25T06:44:41;101838.75;;;1.83;100.00
61318;BME280;47201;40.428;-8.436;2023-01-25T06:46:42;101846.56;;;1.84;100.00
61318;BME280;47201;40.428;-8.436;2023-01-25T06:48:42;101844.97;;;1.86;100.00
61318;BME280;47201;40.428;-8.436;2023-01-25T06:50:43;101854.06;;;1.80;100.00
61318;BME280;47201;40.428;-8.436;2023-01-25T06:52:49;101850.19;;;1.71;100.00
61318;BME280;47201;40.428;-8.436;2023-01-25T06:54:50;101853.44;;;1.67;100.00
61318;BME280;47201;40.428;-8.436;2023-01-25T06:56:51;101866.13;;;1.64;100.00
61318;BME280;47201;40.428;-8.436;2023-01-25T06:58:51;101871.22;;;1.63;100.00
61318;BME280;47201;40.428;-8.436;2023-01-25T07:00:52;101859.72;;;1.56;100.00
61318;BME280;47201;40.428;-8.436;2023-01-25T07:02:52;101858.66;;;1.52;100.00
61318;BME280;47201;40.428;-8.436;2023-01-25T07:04:53;101864.03;;;1.57;100.00
61318;BME280;47201;40.428;-8.436;2023-01-25T07:06:53;101867.59;;;1.59;100.00
61318;BME280;47201;40.428;-8.436;2023-01-25T07:08:54;101856.31;;;1.73;100.00
61318;BME280;47201;40.428;-8.436;2023-01-25T07:10:55;101864.97;;;1.74;100.00
61318;BME280;47201;40.428;-8.436;2023-01-25T07:12:56;101868.59;;;1.78;100.00
61318;BME280;47201;40.428;-8.436;2023-01-25T07:14:56;101861.00;;;1.81;100.00
61318;BME280;47201;40.428;-8.436;2023-01-25T07:16:57;101866.16;;;1.81;100.00
61318;BME280;47201;40.428;-8.436;2023-01-25T07:18:57;101869.72;;;1.83;100.00
61318;BME280;47201;40.428;-8.436;2023-01-25T07:21:02;101873.88;;;1.81;100.00
61318;BME280;47201;40.428;-8.436;2023-01-25T07:23:03;101881.38;;;1.76;100.00
61318;BME280;47201;40.428;-8.436;2023-01-25T07:25:03;101881.47;;;1.78;100.00
61318;BME280;47201;40.428;-8.436;2023-01-25T07:27:05;101884.31;;;1.82;100.00
61318;BME280;47201;40.428;-8.436;2023-01-25T07:29:06;101876.22;;;1.93;100.00
61318;BME280;47201;40.428;-8.436;2023-01-25T07:31:09;101886.97;;;2.00;100.00
61318;BME280;47201;40.428;-8.436;2023-01-25T07:33:10;101881.16;;;2.04;100.00
61318;BME280;47201;40.428;-8.436;2023-01-25T07:35:10;101882.75;;;2.02;100.00
61318;BME280;47201;40.428;-8.436;2023-01-25T07:37:11;101887.91;;;2.02;100.00
61318;BME280;47201;40.428;-8.436;2023-01-25T07:39:11;101894.28;;;2.09;100.00
61318;BME280;47201;40.428;-8.436;2023-01-25T07:41:12;101884.69;;;2.06;100.00
61318;BME280;47201;40.428;-8.436;2023-01-25T07:43:13;101883.78;;;2.06;100.00
61318;BME280;47201;40.428;-8.436;2023-01-25T07:45:14;101892.19;;;2.02;100.00
61318;BME280;47201;40.428;-8.436;2023-01-25T07:47:18;101895.56;;;2.01;100.00
61318;BME280;47201;40.428;-8.436;2023-01-25T07:49:19;101897.44;;;2.03;100.00
61318;BME280;47201;40.428;-8.436;2023-01-25T07:51:20;101895.09;;;2.08;100.00
61318;BME280;47201;40.428;-8.436;2023-01-25T07:53:26;101896.94;;;2.11;100.00
61318;BME280;47201;40.428;-8.436;2023-01-25T07:55:26;101901.97;;;2.08;100.00
61318;BME280;47201;40.428;-8.436;2023-01-25T07:57:27;101898.47;;;2.07;100.00
61318;BME280;47201;40.428;-8.436;2023-01-25T07:59:27;101903.63;;;2.07;100.00
61318;BME280;47201;40.428;-8.436;2023-01-25T08:01:30;101908.72;;;2.05;100.00
61318;BME280;47201;40.428;-8.436;2023-01-25T08:03:33;101905.41;;;2.08;100.00
61318;BME280;47201;40.428;-8.436;2023-01-25T08:05:33;101907.56;;;2.17;100.00
61318;BME280;47201;40.428;-8.436;2023-01-25T08:07:34;101914.69;;;2.21;100.00
61318;BME280;47201;40.428;-8.436;2023-01-25T08:09:34;101913.22;;;2.26;100.00
61318;BME280;47201;40.428;-8.436;2023-01-25T08:11:35;101915.16;;;2.30;100.00
61318;BME280;47201;40.428;-8.436;2023-01-25T08:13:35;101919.59;;;2.33;100.00
61318;BME280;47201;40.428;-8.436;2023-01-25T08:15:36;101921.59;;;2.38;100.00
61318;BME280;47201;40.428;-8.436;2023-01-25T08:17:37;101928.69;;;2.43;100.00
61318;BME280;47201;40.428;-8.436;2023-01-25T08:19:38;101924.66;;;2.48;100.00
61318;BME280;47201;40.428;-8.436;2023-01-25T08:21:38;101931.41;;;2.62;100.00
61318;BME280;47201;40.428;-8.436;2023-01-25T08:23:39;101920.56;;;2.69;100.00
61318;BME280;47201;40.428;-8.436;2023-01-25T08:25:39;101931.94;;;2.73;100.00
61318;BME280;47201;40.428;-8.436;2023-01-25T08:27:40;101933.72;;;2.74;100.00
61318;BME280;47201;40.428;-8.436;2023-01-25T08:29:40;101932.09;;;2.76;100.00
61318;BME280;47201;40.428;-8.436;2023-01-25T08:31:41;101938.47;;;2.83;100.00
61318;BME280;47201;40.428;-8.436;2023-01-25T08:33:44;101942.75;;;2.66;100.00
61318;BME280;47201;40.428;-8.436;2023-01-25T08:35:55;101952.31;;;2.50;100.00
61318;BME280;47201;40.428;-8.436;2023-01-25T08:37:58;101947.31;;;2.37;100.00
61318;BME280;47201;40.428;-8.436;2023-01-25T08:39:59;101955.78;;;2.51;100.00
61318;BME280;47201;40.428;-8.436;2023-01-25T08:41:59;101953.31;;;2.70;100.00
61318;BME280;47201;40.428;-8.436;2023-01-25T08:44:00;101953.63;;;2.77;100.00
61318;BME280;47201;40.428;-8.436;2023-01-25T08:46:00;101950.53;;;2.84;100.00
61318;BME280;47201;40.428;-8.436;2023-01-25T08:48:01;101951.75;;;2.91;100.00
61318;BME280;47201;40.428;-8.436;2023-01-25T08:50:02;101949.03;;;3.06;100.00
61318;BME280;47201;40.428;-8.436;2023-01-25T08:52:02;101958.50;;;3.23;100.00
61318;BME280;47201;40.428;-8.436;2023-01-25T08:54:06;101947.19;;;3.39;100.00
61318;BME280;47201;40.428;-8.436;2023-01-25T08:56:11;101955.25;;;3.63;100.00
61318;BME280;47201;40.428;-8.436;2023-01-25T08:58:13;101952.84;;;3.86;100.00
61318;BME280;47201;40.428;-8.436;2023-01-25T09:00:17;101961.31;;;4.02;100.00
61318;BME280;47201;40.428;-8.436;2023-01-25T09:02:19;101968.00;;;4.16;100.00
61318;BME280;47201;40.428;-8.436;2023-01-25T09:04:20;101965.19;;;4.31;99.54
61318;BME280;47201;40.428;-8.436;2023-01-25T09:06:21;101963.00;;;4.40;99.23
61318;BME280;47201;40.428;-8.436;2023-01-25T09:08:21;101960.00;;;4.51;98.80
61318;BME280;47201;40.428;-8.436;2023-01-25T09:10:22;101967.28;;;4.59;98.47
61318;BME280;47201;40.428;-8.436;2023-01-25T09:12:23;101964.25;;;4.70;97.52
61318;BME280;47201;40.428;-8.436;2023-01-25T09:14:23;101975.28;;;4.85;95.31
61318;BME280;47201;40.428;-8.436;2023-01-25T09:16:24;101966.53;;;5.03;90.15
61318;BME280;47201;40.428;-8.436;2023-01-25T09:18:28;101968.53;;;5.31;89.56
61318;BME280;47201;40.428;-8.436;2023-01-25T09:20:29;101968.41;;;5.72;84.55
61318;BME280;47201;40.428;-8.436;2023-01-25T09:22:29;101967.13;;;6.06;83.16
61318;BME280;47201;40.428;-8.436;2023-01-25T09:24:30;101964.19;;;6.95;76.84
61318;BME280;47201;40.428;-8.436;2023-01-25T09:26:35;101958.69;;;9.28;68.61
61318;BME280;47201;40.428;-8.436;2023-01-25T09:28:38;101957.25;;;12.52;56.86
61318;BME280;47201;40.428;-8.436;2023-01-25T09:30:39;101955.91;;;15.62;50.35
61318;BME280;47201;40.428;-8.436;2023-01-25T09:32:48;101966.72;;;17.83;40.38
61318;BME280;47201;40.428;-8.436;2023-01-25T09:34:49;101960.81;;;18.34;37.87
61318;BME280;47201;40.428;-8.436;2023-01-25T09:36:50;101956.03;;;18.60;37.47
61318;BME280;47201;40.428;-8.436;2023-01-25T09:38:51;101964.00;;;20.08;36.47
61318;BME280;47201;40.428;-8.436;2023-01-25T09:42:59;101974.28;;;19.80;38.08
61318;BME280;47201;40.428;-8.436;2023-01-25T09:47:05;101976.13;;;20.99;39.11
61318;BME280;47201;40.428;-8.436;2023-01-25T09:49:20;101985.38;;;20.01;42.98
61318;BME280;47201;40.428;-8.436;2023-01-25T09:51:28;101980.56;;;20.21;44.68
61318;BME280;47201;40.428;-8.436;2023-01-25T09:53:36;101989.28;;;19.81;46.92
61318;BME280;47201;40.428;-8.436;2023-01-25T09:55:38;101980.44;;;19.35;49.80
61318;BME280;47201;40.428;-8.436;2023-01-25T09:57:38;101989.03;;;20.78;47.89
61318;BME280;47201;40.428;-8.436;2023-01-25T09:59:40;101986.63;;;19.84;50.84
61318;BME280;47201;40.428;-8.436;2023-01-25T10:05:57;101986.69;;;18.75;58.13
61318;BME280;47201;40.428;-8.436;2023-01-25T10:08:05;101982.59;;;17.83;61.57
61318;BME280;47201;40.428;-8.436;2023-01-25T10:10:13;101983.28;;;19.23;58.13
61318;BME280;47201;40.428;-8.436;2023-01-25T10:12:21;101978.91;;;19.20;58.69
61318;BME280;47201;40.428;-8.436;2023-01-25T10:14:23;101981.78;;;18.50;60.71
61318;BME280;47201;40.428;-8.436;2023-01-25T10:20:42;101979.25;;;19.01;61.59
61318;BME280;47201;40.428;-8.436;2023-01-25T10:25:05;101990.59;;;19.08;61.86
61318;BME280;47201;40.428;-8.436;2023-01-25T10:29:31;101982.66;;;19.08;63.48
61318;BME280;47201;40.428;-8.436;2023-01-25T10:31:37;101986.00;;;19.20;64.08
61318;BME280;47201;40.428;-8.436;2023-01-25T10:33:39;101982.69;;;19.55;63.19
61318;BME280;47201;40.428;-8.436;2023-01-25T10:35:44;101969.28;;;18.60;65.81
61318;BME280;47201;40.428;-8.436;2023-01-25T10:37:45;101979.50;;;18.83;65.60
61318;BME280;47201;40.428;-8.436;2023-01-25T10:39:55;101996.19;;;18.26;66.86
61318;BME280;47201;40.428;-8.436;2023-01-25T10:42:14;101992.84;;;18.14;67.67
61318;BME280;47201;40.428;-8.436;2023-01-25T10:44:15;101987.75;;;17.94;68.23
61318;BME280;47201;40.428;-8.436;2023-01-25T10:46:24;101994.78;;;17.08;70.64
61318;BME280;47201;40.428;-8.436;2023-01-25T10:48:26;101990.50;;;16.93;70.88
61318;BME280;47201;40.428;-8.436;2023-01-25T10:52:41;101993.88;;;17.10;70.68
61318;BME280;47201;40.428;-8.436;2023-01-25T10:57:13;101992.88;;;17.22;70.76
61318;BME280;47201;40.428;-8.436;2023-01-25T10:59:16;102004.72;;;17.76;70.14
61318;BME280;47201;40.428;-8.436;2023-01-25T11:01:25;101996.19;;;17.46;71.19
61318;BME280;47201;40.428;-8.436;2023-01-25T11:03:38;101997.47;;;16.99;72.29
61318;BME280;47201;40.428;-8.436;2023-01-25T11:05:38;101994.59;;;18.14;70.26